Time,TemperatureF,DewpointF,PressureIn,WindDirection,WindDirectionDegrees,WindSpeedMPH,WindSpeedGustMPH,Humidity,HourlyPrecipIn,Conditions,Clouds,dailyrainin,SoftwareType,DateUTC
2013-09-06 00:01:00,54.0,35.8,27.35,NNE,22,0.0,0.0,50,0.00,,,0.00,WUHU21623XXSP,2013-09-06 04:01:00,
2013-09-06 00:02:00,54.0,35.8,27.35,NNE,22,0.0,0.0,50,0.00,,,0.00,WUHU21623XXSP,2013-09-06 04:02:00,
2013-09-06 00:07:00,54.0,37.0,27.35,NNE,22,0.0,0.0,53,0.00,,,0.00,WUHU21623XXSP,2013-09-06 04:07:00,
2013-09-06 00:12:00,53.8,36.8,27.35,NNE,22,0.0,0.0,53,0.00,,,0.00,WUHU21623XXSP,2013-09-06 04:12:00,
2013-09-06 00:17:00,53.8,36.8,27.35,NNE,22,0.0,0.0,53,0.00,,,0.00,WUHU21623XXSP,2013-09-06 04:17:00,
2013-09-06 00:22:00,53.6,37.9,27.35,NNE,22,0.0,0.0,55,0.00,,,0.00,WUHU21623XXSP,2013-09-06 04:22:00,
2013-09-06 00:27:00,53.2,36.3,27.36,NNE,22,0.0,0.0,53,0.00,,,0.00,WUHU21623XXSP,2013-09-06 04:27:00,
2013-09-06 00:32:00,53.2,37.5,27.35,NNE,22,0.0,0.0,55,0.00,,,0.00,WUHU21623XXSP,2013-09-06 04:32:00,
2013-09-06 00:37:00,53.1,37.4,27.36,NNE,22,0.0,0.0,55,0.00,,,0.00,WUHU21623XXSP,2013-09-06 04:37:00,
2013-09-06 00:42:00,53.1,37.4,27.36,NNE,22,0.0,0.0,55,0.00,,,0.00,WUHU21623XXSP,2013-09-06 04:42:00,
2013-09-06 00:47:00,52.9,37.2,27.36,NNE,22,0.0,0.0,55,0.00,,,0.00,WUHU21623XXSP,2013-09-06 04:47:00,
2013-09-06 00:52:00,52.7,37.0,27.35,NNE,22,0.0,0.0,55,0.00,,,0.00,WUHU21623XXSP,2013-09-06 04:52:00,
2013-09-06 00:57:00,52.7,37.0,27.36,NNE,22,0.0,0.0,55,0.00,,,0.00,WUHU21623XXSP,2013-09-06 04:57:00,
2013-09-06 01:03:00,52.5,36.8,27.36,NNE,22,0.0,0.0,55,0.00,,,0.00,WUHU21623XXSP,2013-09-06 05:03:00,
2013-09-06 01:08:00,52.3,38.9,27.36,NNE,22,0.0,0.0,60,0.00,,,0.00,WUHU21623XXSP,2013-09-06 05:08:00,
2013-09-06 01:13:00,52.2,37.7,27.36,NNE,22,0.0,0.0,58,0.00,,,0.00,WUHU21623XXSP,2013-09-06 05:13:00,
2013-09-06 01:18:00,52.0,38.6,27.35,NNE,22,0.0,0.0,60,0.00,,,0.00,WUHU21623XXSP,2013-09-06 05:18:00,
2013-09-06 01:23:00,52.2,39.9,27.35,NNE,22,0.0,0.0,63,0.00,,,0.00,WUHU21623XXSP,2013-09-06 05:23:00,
2013-09-06 01:28:00,51.8,38.4,27.35,NNE,22,0.0,0.0,60,0.00,,,0.00,WUHU21623XXSP,2013-09-06 05:28:00,
2013-09-06 01:33:00,51.6,38.3,27.36,NNE,22,0.0,0.0,60,0.00,,,0.00,WUHU21623XXSP,2013-09-06 05:33:00,
2013-09-06 01:38:00,51.8,39.5,27.36,NNE,22,0.0,0.0,63,0.00,,,0.00,WUHU21623XXSP,2013-09-06 05:38:00,
2013-09-06 01:43:00,51.8,39.5,27.35,NNE,22,0.0,0.0,63,0.00,,,0.00,WUHU21623XXSP,2013-09-06 05:43:00,
2013-09-06 01:48:00,51.6,39.3,27.36,NNE,22,0.0,0.0,63,0.00,,,0.00,WUHU21623XXSP,2013-09-06 05:48:00,
2013-09-06 01:53:00,51.4,39.1,27.36,NNE,22,0.0,0.0,63,0.00,,,0.00,WUHU21623XXSP,2013-09-06 05:53:00,
2013-09-06 01:57:00,51.4,40.1,27.35,NNE,22,0.0,0.0,65,0.00,,,0.00,WUHU21623XXSP,2013-09-06 05:57:00,
2013-09-06 01:58:00,51.4,40.1,27.35,NNE,22,0.0,0.0,65,0.00,,,0.00,WUHU21623XXSP,2013-09-06 05:58:00,
2013-09-06 02:08:00,51.4,40.1,27.36,NNE,22,0.0,0.0,65,0.00,,,0.00,WUHU21623XXSP,2013-09-06 06:08:00,
2013-09-06 02:13:00,51.3,40.0,27.35,NNE,22,0.0,0.0,65,0.00,,,0.00,WUHU21623XXSP,2013-09-06 06:13:00,
2013-09-06 02:18:00,51.3,40.0,27.35,NNE,22,0.0,0.0,65,0.00,,,0.00,WUHU21623XXSP,2013-09-06 06:18:00,
2013-09-06 02:23:00,51.3,41.0,27.35,NNE,22,0.0,0.0,68,0.00,,,0.00,WUHU21623XXSP,2013-09-06 06:23:00,
2013-09-06 02:28:00,51.3,41.0,27.36,NNE,22,0.0,0.0,68,0.00,,,0.00,WUHU21623XXSP,2013-09-06 06:28:00,
2013-09-06 02:33:00,51.1,40.8,27.35,NNE,22,0.0,0.0,68,0.00,,,0.00,WUHU21623XXSP,2013-09-06 06:33:00,
2013-09-06 02:38:00,51.1,40.8,27.36,NNE,22,0.0,0.0,68,0.00,,,0.00,WUHU21623XXSP,2013-09-06 06:38:00,
2013-09-06 02:43:00,51.1,40.8,27.36,NNE,22,0.0,0.0,68,0.00,,,0.00,WUHU21623XXSP,2013-09-06 06:43:00,
2013-09-06 02:48:00,50.9,40.6,27.36,NNE,22,0.0,0.0,68,0.00,,,0.00,WUHU21623XXSP,2013-09-06 06:48:00,
2013-09-06 02:53:00,50.9,40.6,27.36,NNE,22,0.0,0.0,68,0.00,,,0.00,WUHU21623XXSP,2013-09-06 06:53:00,
2013-09-06 02:57:00,50.9,40.6,27.36,NNE,22,0.0,0.0,68,0.00,,,0.00,WUHU21623XXSP,2013-09-06 06:57:00,
2013-09-06 02:58:00,50.9,40.6,27.36,NNE,22,0.0,0.0,68,0.00,,,0.00,WUHU21623XXSP,2013-09-06 06:58:00,
2013-09-06 03:09:00,50.9,40.6,27.36,NNE,22,0.0,0.0,68,0.00,,,0.00,WUHU21623XXSP,2013-09-06 07:09:00,
2013-09-06 03:14:00,50.9,41.6,27.36,NNE,22,0.0,0.0,70,0.00,,,0.00,WUHU21623XXSP,2013-09-06 07:14:00,
2013-09-06 03:19:00,50.9,40.6,27.37,NNE,22,0.0,0.0,68,0.00,,,0.00,WUHU21623XXSP,2013-09-06 07:19:00,
2013-09-06 03:24:00,50.7,41.4,27.36,NNE,22,0.0,0.0,70,0.00,,,0.00,WUHU21623XXSP,2013-09-06 07:24:00,
2013-09-06 03:29:00,50.9,41.6,27.36,NNE,22,0.0,0.0,70,0.00,,,0.00,WUHU21623XXSP,2013-09-06 07:29:00,
2013-09-06 03:34:00,50.9,41.6,27.37,NNE,22,0.0,0.0,70,0.00,,,0.00,WUHU21623XXSP,2013-09-06 07:34:00,
2013-09-06 03:39:00,50.7,42.3,27.36,NNE,22,0.0,0.0,73,0.00,,,0.00,WUHU21623XXSP,2013-09-06 07:39:00,
2013-09-06 03:44:00,50.7,42.3,27.36,NNE,22,0.0,0.0,73,0.00,,,0.00,WUHU21623XXSP,2013-09-06 07:44:00,
2013-09-06 03:49:00,50.7,42.3,27.35,NNE,22,0.0,0.0,73,0.00,,,0.00,WUHU21623XXSP,2013-09-06 07:49:00,
2013-09-06 03:54:00,50.5,42.1,27.35,NNE,22,0.0,0.0,73,0.00,,,0.00,WUHU21623XXSP,2013-09-06 07:54:00,
2013-09-06 03:59:00,50.7,42.3,27.35,NNE,22,0.0,0.0,73,0.00,,,0.00,WUHU21623XXSP,2013-09-06 07:59:00,
2013-09-06 04:04:00,50.7,43.1,27.35,NNE,22,0.0,0.0,75,0.00,,,0.00,WUHU21623XXSP,2013-09-06 08:04:00,
2013-09-06 04:09:00,50.7,43.1,27.35,NNE,22,0.0,0.0,75,0.00,,,0.00,WUHU21623XXSP,2013-09-06 08:09:00,
2013-09-06 04:14:00,50.5,42.9,27.35,NNE,22,0.0,0.0,75,0.00,,,0.00,WUHU21623XXSP,2013-09-06 08:14:00,
2013-09-06 04:19:00,50.7,43.1,27.35,NNE,22,0.0,0.0,75,0.00,,,0.00,WUHU21623XXSP,2013-09-06 08:19:00,
2013-09-06 04:24:00,50.5,42.9,27.35,NNE,22,0.0,0.0,75,0.00,,,0.00,WUHU21623XXSP,2013-09-06 08:24:00,
2013-09-06 04:29:00,50.7,43.1,27.35,NNE,22,0.0,0.0,75,0.00,,,0.00,WUHU21623XXSP,2013-09-06 08:29:00,
2013-09-06 04:34:00,50.7,43.1,27.35,NNE,22,0.0,0.0,75,0.00,,,0.00,WUHU21623XXSP,2013-09-06 08:34:00,
2013-09-06 04:39:00,50.7,43.1,27.35,NNE,22,0.0,0.0,75,0.00,,,0.00,WUHU21623XXSP,2013-09-06 08:39:00,
2013-09-06 04:45:00,50.5,42.9,27.35,NNE,22,0.0,0.0,75,0.00,,,0.00,WUHU21623XXSP,2013-09-06 08:45:00,
2013-09-06 04:50:00,50.5,42.9,27.35,NNE,22,0.0,0.0,75,0.00,,,0.00,WUHU21623XXSP,2013-09-06 08:50:00,
2013-09-06 04:55:00,50.4,42.8,27.35,NNE,22,0.0,0.0,75,0.00,,,0.00,WUHU21623XXSP,2013-09-06 08:55:00,
2013-09-06 05:01:00,50.4,42.8,27.35,NNE,22,0.0,0.0,75,0.00,,,0.00,WUHU21623XXSP,2013-09-06 09:01:00,
2013-09-06 05:06:00,50.4,42.8,27.36,NNE,22,0.0,0.0,75,0.00,,,0.00,WUHU21623XXSP,2013-09-06 09:06:00,
2013-09-06 05:11:00,50.2,42.7,27.36,NNE,22,0.0,0.0,75,0.00,,,0.00,WUHU21623XXSP,2013-09-06 09:11:00,
2013-09-06 05:17:00,50.4,42.8,27.35,NNE,22,0.0,0.0,75,0.00,,,0.00,WUHU21623XXSP,2013-09-06 09:17:00,
2013-09-06 05:22:00,50.4,43.7,27.35,NNE,22,0.0,0.0,78,0.00,,,0.00,WUHU21623XXSP,2013-09-06 09:22:00,
2013-09-06 05:24:00,50.2,42.7,27.35,NNE,22,0.0,0.0,75,0.00,,,0.00,WUHU21623XXSP,2013-09-06 09:24:00,
2013-09-06 05:35:00,49.8,42.3,27.35,NNE,22,0.0,0.0,75,0.00,,,0.00,WUHU21623XXSP,2013-09-06 09:35:00,
2013-09-06 05:40:00,49.6,42.1,27.36,NNE,22,0.0,0.0,75,0.00,,,0.00,WUHU21623XXSP,2013-09-06 09:40:00,
2013-09-06 05:45:00,49.5,42.0,27.35,NNE,22,0.0,0.0,75,0.00,,,0.00,WUHU21623XXSP,2013-09-06 09:45:00,
2013-09-06 05:50:00,49.5,42.8,27.35,NNE,22,0.0,0.0,78,0.00,,,0.00,WUHU21623XXSP,2013-09-06 09:50:00,
2013-09-06 05:55:00,49.3,41.8,27.35,NNE,22,0.0,0.0,75,0.00,,,0.00,WUHU21623XXSP,2013-09-06 09:55:00,
2013-09-06 06:03:00,49.5,42.8,27.36,NNE,22,0.0,0.0,78,0.00,,,0.00,WUHU21623XXSP,2013-09-06 10:03:00,
2013-09-06 06:08:00,49.1,42.4,27.36,NNE,22,0.0,0.0,78,0.00,,,0.00,WUHU21623XXSP,2013-09-06 10:08:00,
2013-09-06 06:09:00,49.1,42.4,27.36,NNE,22,0.0,0.0,78,0.00,,,0.00,WUHU21623XXSP,2013-09-06 10:09:00,
2013-09-06 06:24:00,48.9,42.2,27.36,NNE,22,0.0,0.0,78,0.00,,,0.00,WUHU21623XXSP,2013-09-06 10:24:00,
2013-09-06 06:29:00,48.9,42.2,27.36,NNE,22,0.0,0.0,78,0.00,,,0.00,WUHU21623XXSP,2013-09-06 10:29:00,
2013-09-06 06:34:00,48.9,42.2,27.36,NNE,22,0.0,0.0,78,0.00,,,0.00,WUHU21623XXSP,2013-09-06 10:34:00,
2013-09-06 06:40:00,48.6,41.9,27.37,NNE,22,0.0,0.0,78,0.00,,,0.00,WUHU21623XXSP,2013-09-06 10:40:00,
2013-09-06 06:45:00,48.7,42.0,27.37,NNE,22,0.0,0.0,78,0.00,,,0.00,WUHU21623XXSP,2013-09-06 10:45:00,
2013-09-06 06:50:00,48.9,42.2,27.37,NNE,22,0.0,0.0,78,0.00,,,0.00,WUHU21623XXSP,2013-09-06 10:50:00,
2013-09-06 06:55:00,48.9,42.2,27.37,NNE,22,0.0,0.0,78,0.00,,,0.00,WUHU21623XXSP,2013-09-06 10:55:00,
2013-09-06 07:00:00,48.9,42.2,27.37,NNE,22,0.0,0.0,78,0.00,,,0.00,WUHU21623XXSP,2013-09-06 11:00:00,
2013-09-06 07:06:00,48.9,42.2,27.37,NNE,22,0.0,0.0,78,0.00,,,0.00,WUHU21623XXSP,2013-09-06 11:06:00,
2013-09-06 07:11:00,48.9,29.7,27.37,NNE,22,0.0,0.0,48,0.00,,,0.00,WUHU21623XXSP,2013-09-06 11:11:00,
2013-09-06 07:18:00,48.9,29.7,27.37,NNE,22,0.0,0.0,48,0.00,,,0.00,WUHU21623XXSP,2013-09-06 11:18:00,
2013-09-06 07:23:00,48.7,29.6,27.37,NNE,22,0.0,0.0,48,0.00,,,0.00,WUHU21623XXSP,2013-09-06 11:23:00,
2013-09-06 07:28:00,48.9,29.7,27.37,NNE,22,0.0,0.0,48,0.00,,,0.00,WUHU21623XXSP,2013-09-06 11:28:00,
2013-09-06 07:33:00,49.1,29.9,27.37,NNE,22,0.0,0.0,48,0.00,,,0.00,WUHU21623XXSP,2013-09-06 11:33:00,
2013-09-06 07:38:00,48.9,29.7,27.37,NNE,22,0.0,0.0,48,0.00,,,0.00,WUHU21623XXSP,2013-09-06 11:38:00,
2013-09-06 07:45:00,49.1,29.9,27.37,NNE,22,0.0,0.0,48,0.00,,,0.00,WUHU21623XXSP,2013-09-06 11:45:00,
2013-09-06 07:50:00,48.9,29.7,27.37,NNE,22,0.0,0.0,48,0.00,,,0.00,WUHU21623XXSP,2013-09-06 11:50:00,
2013-09-06 07:55:00,48.9,29.7,27.37,NNE,22,0.0,0.0,48,0.00,,,0.00,WUHU21623XXSP,2013-09-06 11:55:00,
2013-09-06 08:03:00,48.9,29.7,27.37,NNE,22,0.0,0.0,48,0.00,,,0.00,WUHU21623XXSP,2013-09-06 12:03:00,
2013-09-06 08:08:00,49.5,30.3,27.37,NNE,22,0.0,0.0,48,0.00,,,0.00,WUHU21623XXSP,2013-09-06 12:08:00,
2013-09-06 08:13:00,49.3,30.1,27.37,NNE,22,0.0,0.0,48,0.00,,,0.00,WUHU21623XXSP,2013-09-06 12:13:00,
2013-09-06 08:20:00,49.3,30.1,27.37,NNE,22,0.0,0.0,48,0.00,,,0.00,WUHU21623XXSP,2013-09-06 12:20:00,
2013-09-06 08:25:00,50.2,45.1,27.38,NNE,22,0.0,0.0,83,0.00,,,0.00,WUHU21623XXSP,2013-09-06 12:25:00,
2013-09-06 08:31:00,50.4,46.1,27.38,NNE,22,0.0,0.0,85,0.00,,,0.00,WUHU21623XXSP,2013-09-06 12:31:00,
2013-09-06 08:34:00,50.5,46.2,27.37,NNE,22,0.0,0.0,85,0.00,,,0.00,WUHU21623XXSP,2013-09-06 12:34:00,
2013-09-06 08:45:00,50.7,46.3,27.37,NNE,22,0.0,0.0,85,0.00,,,0.00,WUHU21623XXSP,2013-09-06 12:45:00,
2013-09-06 08:51:00,51.3,46.2,27.37,NNE,22,0.0,0.0,83,0.00,,,0.00,WUHU21623XXSP,2013-09-06 12:51:00,
2013-09-06 08:57:00,51.4,47.0,27.37,NNE,22,0.0,0.0,85,0.00,,,0.00,WUHU21623XXSP,2013-09-06 12:57:00,
2013-09-06 09:08:00,52.2,47.0,27.37,NNE,22,0.0,0.0,83,0.00,,,0.00,WUHU21623XXSP,2013-09-06 13:08:00,
2013-09-06 09:14:00,52.5,48.1,27.37,NNE,22,0.0,0.0,85,0.00,,,0.00,WUHU21623XXSP,2013-09-06 13:14:00,
2013-09-06 09:17:00,53.1,47.9,27.37,NNE,22,0.0,0.0,83,0.00,,,0.00,WUHU21623XXSP,2013-09-06 13:17:00,
2013-09-06 09:19:00,53.1,47.9,27.37,NNE,22,0.0,0.0,83,0.00,,,0.00,WUHU21623XXSP,2013-09-06 13:19:00,
2013-09-06 09:30:00,53.6,48.4,27.37,NNE,22,0.0,0.0,83,0.00,,,0.00,WUHU21623XXSP,2013-09-06 13:30:00,
2013-09-06 09:42:00,54.9,49.7,27.36,NNE,22,1.6,1.6,83,0.00,,,0.00,WUHU21623XXSP,2013-09-06 13:42:00,
2013-09-06 09:48:00,56.3,50.3,27.37,NNE,22,1.6,3.4,80,0.00,,,0.00,WUHU21623XXSP,2013-09-06 13:48:00,
2013-09-06 09:51:00,57.4,50.5,27.37,NNE,22,0.0,3.4,78,0.00,,,0.00,WUHU21623XXSP,2013-09-06 13:51:00,
2013-09-06 10:04:00,58.6,49.9,27.36,NNE,22,0.0,0.0,73,0.00,,,0.00,WUHU21623XXSP,2013-09-06 14:04:00,
2013-09-06 10:06:00,60.4,48.7,27.36,NNE,22,2.7,2.7,65,0.00,,,0.00,WUHU21623XXSP,2013-09-06 14:06:00,
2013-09-06 10:21:00,63.0,46.7,27.36,NNE,22,1.3,3.6,55,0.00,,,0.00,WUHU21623XXSP,2013-09-06 14:21:00,
2013-09-06 10:26:00,63.5,45.9,27.36,NNE,22,0.0,2.9,53,0.00,,,0.00,WUHU21623XXSP,2013-09-06 14:26:00,
2013-09-06 10:31:00,64.0,43.6,27.35,NNE,22,0.7,2.9,48,0.00,,,0.00,WUHU21623XXSP,2013-09-06 14:31:00,
2013-09-06 10:38:00,64.6,44.2,27.36,NNE,22,1.3,1.3,48,0.00,,,0.00,WUHU21623XXSP,2013-09-06 14:38:00,
2013-09-06 10:43:00,65.5,45.0,27.35,NNE,22,0.0,1.3,48,0.00,,,0.00,WUHU21623XXSP,2013-09-06 14:43:00,
2013-09-06 10:48:00,65.8,45.3,27.36,NNE,22,0.0,0.0,48,0.00,,,0.00,WUHU21623XXSP,2013-09-06 14:48:00,
2013-09-06 10:53:00,66.2,45.6,27.35,NNE,22,0.0,2.5,48,0.00,,,0.00,WUHU21623XXSP,2013-09-06 14:53:00,
2013-09-06 11:02:00,66.9,46.3,27.35,NNE,22,2.0,4.9,48,0.00,,,0.00,WUHU21623XXSP,2013-09-06 15:02:00,
2013-09-06 11:07:00,67.5,46.8,27.35,NNE,22,0.0,3.6,48,0.00,,,0.00,WUHU21623XXSP,2013-09-06 15:07:00,
2013-09-06 11:12:00,68.2,47.5,27.35,NNE,22,0.0,3.6,48,0.00,,,0.00,WUHU21623XXSP,2013-09-06 15:12:00,
2013-09-06 11:21:00,68.2,47.5,27.35,NNE,22,0.0,0.0,48,0.00,,,0.00,WUHU21623XXSP,2013-09-06 15:21:00,
2013-09-06 11:26:00,68.9,48.1,27.34,NNE,22,2.7,3.1,48,0.00,,,0.00,WUHU21623XXSP,2013-09-06 15:26:00,
2013-09-06 11:32:00,69.4,48.6,27.35,NNE,22,0.0,5.1,48,0.00,,,0.00,WUHU21623XXSP,2013-09-06 15:32:00,
2013-09-06 11:39:00,69.4,48.6,27.35,NNE,22,0.0,5.1,48,0.00,,,0.00,WUHU21623XXSP,2013-09-06 15:39:00,
2013-09-06 11:44:00,70.0,49.1,27.34,NNE,22,0.0,1.1,48,0.00,,,0.00,WUHU21623XXSP,2013-09-06 15:44:00,
2013-09-06 11:56:00,70.2,49.3,27.33,NNE,22,0.0,1.6,48,0.00,,,0.00,WUHU21623XXSP,2013-09-06 15:56:00,
2013-09-06 12:01:00,70.3,49.4,27.33,NNE,22,0.0,0.0,48,0.00,,,0.00,WUHU21623XXSP,2013-09-06 16:01:00,
2013-09-06 12:06:00,70.3,49.4,27.33,NNE,22,1.1,3.6,48,0.00,,,0.00,WUHU21623XXSP,2013-09-06 16:06:00,
2013-09-06 12:11:00,70.5,49.6,27.33,NNE,22,0.0,3.6,48,0.00,,,0.00,WUHU21623XXSP,2013-09-06 16:11:00,
2013-09-06 12:16:00,70.9,50.0,27.33,NNE,22,2.0,2.5,48,0.00,,,0.00,WUHU21623XXSP,2013-09-06 16:16:00,
2013-09-06 12:26:00,71.1,50.1,27.33,NNE,22,0.0,2.0,48,0.00,,,0.00,WUHU21623XXSP,2013-09-06 16:26:00,
2013-09-06 12:33:00,71.1,50.1,27.33,NNE,22,0.9,3.1,48,0.00,,,0.00,WUHU21623XXSP,2013-09-06 16:33:00,
2013-09-06 12:42:00,71.8,50.8,27.32,NNE,22,0.0,2.7,48,0.00,,,0.00,WUHU21623XXSP,2013-09-06 16:42:00,
2013-09-06 12:43:00,71.8,50.8,27.32,NNE,22,0.0,1.3,48,0.00,,,0.00,WUHU21623XXSP,2013-09-06 16:43:00,
2013-09-06 12:50:00,71.8,50.8,27.32,NNE,22,1.6,1.6,48,0.00,,,0.00,WUHU21623XXSP,2013-09-06 16:50:00,
2013-09-06 12:54:00,72.0,51.0,27.32,NNE,22,4.3,4.3,48,0.00,,,0.00,WUHU21623XXSP,2013-09-06 16:54:00,
2013-09-06 13:06:00,72.3,51.3,27.32,NNE,22,1.3,1.3,48,0.00,,,0.00,WUHU21623XXSP,2013-09-06 17:06:00,
2013-09-06 13:11:00,72.5,51.4,27.32,NNE,22,2.7,2.7,48,0.00,,,0.00,WUHU21623XXSP,2013-09-06 17:11:00,
2013-09-06 13:15:00,72.5,51.4,27.31,NNE,22,0.0,2.7,48,0.00,,,0.00,WUHU21623XXSP,2013-09-06 17:15:00,
2013-09-06 13:18:00,72.5,51.4,27.31,NNE,22,0.0,2.7,48,0.00,,,0.00,WUHU21623XXSP,2013-09-06 17:18:00,
2013-09-06 13:27:00,72.3,51.3,27.31,NNE,22,0.9,1.8,48,0.00,,,0.00,WUHU21623XXSP,2013-09-06 17:27:00,
2013-09-06 13:36:00,72.3,51.3,27.31,NNE,22,0.0,4.7,48,0.00,,,0.00,WUHU21623XXSP,2013-09-06 17:36:00,
2013-09-06 13:41:00,72.0,51.0,27.31,NNE,22,0.0,0.0,48,0.00,,,0.00,WUHU21623XXSP,2013-09-06 17:41:00,
2013-09-06 13:47:00,72.0,51.0,27.31,NNE,22,0.0,0.0,48,0.00,,,0.00,WUHU21623XXSP,2013-09-06 17:47:00,
2013-09-06 13:54:00,72.0,51.0,27.31,NNE,22,0.0,0.0,48,0.00,,,0.00,WUHU21623XXSP,2013-09-06 17:54:00,
2013-09-06 13:59:00,71.8,50.8,27.30,NNE,22,1.1,2.5,48,0.00,,,0.00,WUHU21623XXSP,2013-09-06 17:59:00,
2013-09-06 14:00:00,71.8,50.8,27.30,NNE,22,3.4,3.4,48,0.00,,,0.00,WUHU21623XXSP,2013-09-06 18:00:00,
2013-09-06 14:05:00,71.6,50.6,27.30,NNE,22,0.0,3.4,48,0.00,,,0.00,WUHU21623XXSP,2013-09-06 18:05:00,
2013-09-06 14:07:00,71.8,50.8,27.29,NNE,22,1.6,3.4,48,0.00,,,0.00,WUHU21623XXSP,2013-09-06 18:07:00,
2013-09-06 14:11:00,71.8,50.8,27.29,NNE,22,1.6,1.6,48,0.00,,,0.00,WUHU21623XXSP,2013-09-06 18:11:00,
2013-09-06 14:17:00,71.8,50.8,27.29,NNE,22,2.9,2.9,48,0.00,,,0.00,WUHU21623XXSP,2013-09-06 18:17:00,
2013-09-06 14:28:00,71.4,50.4,27.28,NNE,22,0.0,0.9,48,0.00,,,0.00,WUHU21623XXSP,2013-09-06 18:28:00,
2013-09-06 14:34:00,71.6,50.6,27.28,NNE,22,0.0,0.0,48,0.00,,,0.00,WUHU21623XXSP,2013-09-06 18:34:00,
2013-09-06 14:37:00,71.4,50.4,27.27,NNE,22,0.0,0.4,48,0.00,,,0.00,WUHU21623XXSP,2013-09-06 18:37:00,
2013-09-06 14:52:00,71.4,50.4,27.27,NNE,22,0.0,0.0,48,0.00,,,0.00,WUHU21623XXSP,2013-09-06 18:52:00,
2013-09-06 14:57:00,71.4,50.4,27.27,NNE,22,2.9,2.9,48,0.00,,,0.00,WUHU21623XXSP,2013-09-06 18:57:00,
2013-09-06 15:03:00,71.2,50.2,27.27,NNE,22,0.9,2.9,48,0.00,,,0.00,WUHU21623XXSP,2013-09-06 19:03:00,
2013-09-06 15:10:00,71.2,50.2,27.26,NNE,22,4.3,4.3,48,0.00,,,0.00,WUHU21623XXSP,2013-09-06 19:10:00,
2013-09-06 15:15:00,71.2,50.2,27.26,NNE,22,3.6,4.3,48,0.00,,,0.00,WUHU21623XXSP,2013-09-06 19:15:00,
2013-09-06 15:21:00,71.2,50.2,27.26,NNE,22,0.0,3.6,48,0.00,,,0.00,WUHU21623XXSP,2013-09-06 19:21:00,
2013-09-06 15:27:00,71.2,50.2,27.26,NNE,22,0.0,4.0,48,0.00,,,0.00,WUHU21623XXSP,2013-09-06 19:27:00,
2013-09-06 15:32:00,71.1,50.1,27.26,NNE,22,0.0,2.0,48,0.00,,,0.00,WUHU21623XXSP,2013-09-06 19:32:00,
2013-09-06 15:34:00,71.1,50.1,27.25,NNE,23,0.0,0.0,48,0.00,,,0.00,WUHU21623XXSP,2013-09-06 19:34:00,
2013-09-06 15:39:00,71.2,50.2,27.25,NNE,22,0.0,2.0,48,0.00,,,0.00,WUHU21623XXSP,2013-09-06 19:39:00,
2013-09-06 15:44:00,71.1,50.1,27.25,NNE,22,0.0,0.0,48,0.00,,,0.00,WUHU21623XXSP,2013-09-06 19:44:00,
2013-09-06 15:49:00,71.2,50.2,27.25,NNE,22,0.0,0.0,48,0.00,,,0.00,WUHU21623XXSP,2013-09-06 19:49:00,
2013-09-06 15:54:00,70.9,50.0,27.26,NNE,22,0.0,0.0,48,0.00,,,0.00,WUHU21623XXSP,2013-09-06 19:54:00,
2013-09-06 15:59:00,70.7,49.8,27.25,NNE,22,1.1,1.1,48,0.00,,,0.00,WUHU21623XXSP,2013-09-06 19:59:00,
2013-09-06 16:04:00,70.7,49.8,27.25,NNE,22,1.8,1.8,48,0.00,,,0.00,WUHU21623XXSP,2013-09-06 20:04:00,
2013-09-06 16:09:00,70.7,49.8,27.25,NNE,22,0.0,1.8,48,0.00,,,0.00,WUHU21623XXSP,2013-09-06 20:09:00,
2013-09-06 16:14:00,70.7,49.8,27.25,NNE,22,0.0,2.9,48,0.00,,,0.00,WUHU21623XXSP,2013-09-06 20:14:00,
2013-09-06 16:19:00,70.5,49.6,27.25,NNE,22,0.0,2.9,48,0.00,,,0.00,WUHU21623XXSP,2013-09-06 20:19:00,
2013-09-06 16:24:00,70.7,49.8,27.25,NNE,22,0.0,0.0,48,0.00,,,0.00,WUHU21623XXSP,2013-09-06 20:24:00,
2013-09-06 16:29:00,70.7,49.8,27.26,NNE,22,0.0,0.0,48,0.00,,,0.00,WUHU21623XXSP,2013-09-06 20:29:00,
2013-09-06 16:34:00,70.7,49.8,27.26,NNE,22,0.0,0.0,48,0.00,,,0.00,WUHU21623XXSP,2013-09-06 20:34:00,
2013-09-06 16:39:00,70.5,49.6,27.25,NNE,22,0.0,0.0,48,0.00,,,0.00,WUHU21623XXSP,2013-09-06 20:39:00,
2013-09-06 16:44:00,70.5,49.6,27.25,NNE,22,0.0,0.0,48,0.00,,,0.00,WUHU21623XXSP,2013-09-06 20:44:00,
2013-09-06 16:49:00,70.5,49.6,27.25,NNE,22,0.0,0.0,48,0.00,,,0.00,WUHU21623XXSP,2013-09-06 20:49:00,
2013-09-06 16:54:00,70.5,49.6,27.25,NNE,22,2.5,2.5,48,0.00,,,0.00,WUHU21623XXSP,2013-09-06 20:54:00,
2013-09-06 16:59:00,70.5,49.6,27.25,NNE,22,0.0,2.5,48,0.00,,,0.00,WUHU21623XXSP,2013-09-06 20:59:00,
2013-09-06 17:04:00,70.5,49.6,27.25,NNE,22,0.0,0.0,48,0.00,,,0.00,WUHU21623XXSP,2013-09-06 21:04:00,
2013-09-06 17:09:00,70.3,49.4,27.25,NNE,22,0.0,0.0,48,0.00,,,0.00,WUHU21623XXSP,2013-09-06 21:09:00,
2013-09-06 17:14:00,70.3,49.4,27.25,NNE,22,0.0,0.0,48,0.00,,,0.00,WUHU21623XXSP,2013-09-06 21:14:00,
2013-09-06 17:19:00,70.3,49.4,27.25,NNE,22,0.0,1.6,48,0.00,,,0.00,WUHU21623XXSP,2013-09-06 21:19:00,
2013-09-06 17:24:00,70.3,49.4,27.25,NNE,22,0.0,1.6,48,0.00,,,0.00,WUHU21623XXSP,2013-09-06 21:24:00,
2013-09-06 17:29:00,70.0,49.1,27.25,NNE,22,0.0,0.0,48,0.00,,,0.00,WUHU21623XXSP,2013-09-06 21:29:00,
2013-09-06 17:34:00,70.0,49.1,27.25,NNE,22,0.0,0.0,48,0.00,,,0.00,WUHU21623XXSP,2013-09-06 21:34:00,
2013-09-06 17:39:00,69.8,49.0,27.25,NNE,22,0.0,0.0,48,0.00,,,0.00,WUHU21623XXSP,2013-09-06 21:39:00,
2013-09-06 17:44:00,69.6,48.8,27.24,NNE,22,2.0,2.0,48,0.00,,,0.00,WUHU21623XXSP,2013-09-06 21:44:00,
2013-09-06 17:49:00,69.4,48.6,27.24,NNE,22,0.0,2.0,48,0.00,,,0.00,WUHU21623XXSP,2013-09-06 21:49:00,
2013-09-06 17:54:00,69.3,48.5,27.24,NNE,22,0.0,0.0,48,0.00,,,0.00,WUHU21623XXSP,2013-09-06 21:54:00,
2013-09-06 17:59:00,69.3,48.5,27.24,NNE,22,0.0,0.0,48,0.00,,,0.00,WUHU21623XXSP,2013-09-06 21:59:00,
2013-09-06 18:04:00,69.3,48.5,27.24,NNE,22,0.0,0.0,48,0.00,,,0.00,WUHU21623XXSP,2013-09-06 22:04:00,
2013-09-06 18:09:00,69.1,48.3,27.24,NNE,22,0.0,0.0,48,0.00,,,0.00,WUHU21623XXSP,2013-09-06 22:09:00,
2013-09-06 18:14:00,68.7,47.9,27.23,NNE,22,0.0,0.0,48,0.00,,,0.00,WUHU21623XXSP,2013-09-06 22:14:00,
2013-09-06 18:19:00,68.7,47.9,27.23,NNE,22,0.0,0.0,48,0.00,,,0.00,WUHU21623XXSP,2013-09-06 22:19:00,
2013-09-06 18:24:00,68.5,47.8,27.23,NNE,22,0.0,0.0,48,0.00,,,0.00,WUHU21623XXSP,2013-09-06 22:24:00,
2013-09-06 18:29:00,68.5,47.8,27.23,NNE,22,0.0,0.0,48,0.00,,,0.00,WUHU21623XXSP,2013-09-06 22:29:00,
2013-09-06 18:34:00,68.4,47.7,27.23,NNE,22,0.0,0.0,48,0.00,,,0.00,WUHU21623XXSP,2013-09-06 22:34:00,
2013-09-06 18:39:00,68.4,47.7,27.23,NNE,22,0.0,0.0,48,0.00,,,0.00,WUHU21623XXSP,2013-09-06 22:39:00,
2013-09-06 18:44:00,68.4,47.7,27.23,NNE,22,0.0,0.0,48,0.00,,,0.00,WUHU21623XXSP,2013-09-06 22:44:00,
2013-09-06 18:49:00,68.2,47.5,27.23,NNE,22,0.0,0.0,48,0.00,,,0.00,WUHU21623XXSP,2013-09-06 22:49:00,
2013-09-06 18:54:00,68.2,47.5,27.23,NNE,22,0.0,0.0,48,0.00,,,0.00,WUHU21623XXSP,2013-09-06 22:54:00,
2013-09-06 18:59:00,68.0,47.3,27.22,NNE,22,0.0,0.0,48,0.00,,,0.00,WUHU21623XXSP,2013-09-06 22:59:00,
2013-09-06 19:04:00,68.0,47.3,27.22,NNE,22,0.0,0.0,48,0.00,,,0.00,WUHU21623XXSP,2013-09-06 23:04:00,
2013-09-06 19:09:00,68.0,47.3,27.22,NNE,22,0.0,0.0,48,0.00,,,0.00,WUHU21623XXSP,2013-09-06 23:09:00,
2013-09-06 19:14:00,67.6,46.9,27.22,NNE,22,0.0,0.0,48,0.00,,,0.00,WUHU21623XXSP,2013-09-06 23:14:00,
2013-09-06 19:19:00,67.6,46.9,27.22,NNE,22,0.0,0.0,48,0.00,,,0.00,WUHU21623XXSP,2013-09-06 23:19:00,
2013-09-06 19:24:00,67.5,46.8,27.22,NNE,22,0.0,0.0,48,0.00,,,0.00,WUHU21623XXSP,2013-09-06 23:24:00,
2013-09-06 19:29:00,67.6,46.9,27.22,NNE,22,0.0,0.0,48,0.00,,,0.00,WUHU21623XXSP,2013-09-06 23:29:00,
2013-09-06 19:34:00,67.1,46.5,27.22,NNE,22,0.0,0.0,48,0.00,,,0.00,WUHU21623XXSP,2013-09-06 23:34:00,
2013-09-06 19:39:00,67.1,46.5,27.22,NNE,22,0.0,0.0,48,0.00,,,0.00,WUHU21623XXSP,2013-09-06 23:39:00,
2013-09-06 19:44:00,66.7,46.1,27.22,NNE,22,0.0,0.0,48,0.00,,,0.00,WUHU21623XXSP,2013-09-06 23:44:00,
2013-09-06 19:49:00,66.6,46.0,27.22,NNE,22,0.0,0.0,48,0.00,,,0.00,WUHU21623XXSP,2013-09-06 23:49:00,
2013-09-06 19:54:00,66.4,45.8,27.21,NNE,22,0.0,0.0,48,0.00,,,0.00,WUHU21623XXSP,2013-09-06 23:54:00,
2013-09-06 19:59:00,65.8,45.3,27.21,NNE,22,0.0,0.0,48,0.00,,,0.00,WUHU21623XXSP,2013-09-06 23:59:00,
2013-09-06 20:04:00,65.7,45.2,27.22,NNE,22,0.0,0.0,48,0.00,,,0.00,WUHU21623XXSP,2013-09-07 00:04:00,
2013-09-06 20:09:00,65.3,44.8,27.21,NNE,22,0.0,0.0,48,0.00,,,0.00,WUHU21623XXSP,2013-09-07 00:09:00,
2013-09-06 20:14:00,64.9,44.5,27.21,NNE,22,0.0,0.0,48,0.00,,,0.00,WUHU21623XXSP,2013-09-07 00:14:00,
2013-09-06 20:19:00,64.6,44.2,27.21,NNE,22,0.0,0.0,48,0.00,,,0.00,WUHU21623XXSP,2013-09-07 00:19:00,
2013-09-06 20:24:00,64.4,44.0,27.21,NNE,22,0.0,0.0,48,0.00,,,0.00,WUHU21623XXSP,2013-09-07 00:24:00,
2013-09-06 20:29:00,64.0,43.6,27.21,NNE,22,3.4,3.4,48,0.00,,,0.00,WUHU21623XXSP,2013-09-07 00:29:00,
2013-09-06 20:34:00,63.9,43.5,27.20,NNE,22,1.6,3.4,48,0.00,,,0.00,WUHU21623XXSP,2013-09-07 00:34:00,
2013-09-06 20:40:00,63.7,43.3,27.20,NNE,22,0.0,3.4,48,0.00,,,0.00,WUHU21623XXSP,2013-09-07 00:40:00,
2013-09-06 20:41:00,63.5,43.2,27.20,NNE,22,0.0,2.2,48,0.00,,,0.00,WUHU21623XXSP,2013-09-07 00:41:00,
2013-09-06 20:48:00,63.3,43.0,27.20,NNE,22,0.0,0.0,48,0.00,,,0.00,WUHU21623XXSP,2013-09-07 00:48:00,
2013-09-06 20:52:00,63.3,43.0,27.20,NNE,22,0.0,0.0,48,0.00,,,0.00,WUHU21623XXSP,2013-09-07 00:52:00,
2013-09-06 20:58:00,63.1,42.8,27.20,NNE,22,0.0,0.0,48,0.00,,,0.00,WUHU21623XXSP,2013-09-07 00:58:00,
2013-09-06 21:03:00,63.0,42.7,27.20,NNE,22,0.0,0.0,48,0.00,,,0.00,WUHU21623XXSP,2013-09-07 01:03:00,
2013-09-06 21:09:00,63.1,42.8,27.20,NNE,22,0.0,0.0,48,0.00,,,0.00,WUHU21623XXSP,2013-09-07 01:09:00,
2013-09-06 21:13:00,63.0,42.7,27.20,NNE,22,0.0,0.0,48,0.00,,,0.00,WUHU21623XXSP,2013-09-07 01:13:00,
2013-09-06 21:18:00,63.0,42.7,27.20,NNE,22,0.0,0.0,48,0.00,,,0.00,WUHU21623XXSP,2013-09-07 01:18:00,
2013-09-06 21:24:00,62.6,42.3,27.20,NNE,22,0.0,0.0,48,0.00,,,0.00,WUHU21623XXSP,2013-09-07 01:24:00,
2013-09-06 21:28:00,62.8,42.5,27.20,NNE,22,0.0,0.0,48,0.00,,,0.00,WUHU21623XXSP,2013-09-07 01:28:00,
2013-09-06 21:34:00,62.6,42.3,27.20,NNE,23,0.0,0.0,48,0.00,,,0.00,WUHU21623XXSP,2013-09-07 01:34:00,
2013-09-06 21:35:00,62.6,42.3,27.20,NNE,22,0.0,0.0,48,0.00,,,0.00,WUHU21623XXSP,2013-09-07 01:35:00,
2013-09-06 21:39:00,62.4,42.2,27.20,NNE,22,0.0,0.0,48,0.00,,,0.00,WUHU21623XXSP,2013-09-07 01:39:00,
2013-09-06 21:43:00,62.2,42.0,27.20,NNE,22,1.1,1.1,48,0.00,,,0.00,WUHU21623XXSP,2013-09-07 01:43:00,
2013-09-06 21:50:00,62.2,42.0,27.20,NNE,22,0.0,1.1,48,0.00,,,0.00,WUHU21623XXSP,2013-09-07 01:50:00,
2013-09-06 21:54:00,62.1,41.9,27.20,NNE,22,0.0,0.0,48,0.00,,,0.00,WUHU21623XXSP,2013-09-07 01:54:00,
2013-09-06 22:00:00,61.9,41.7,27.19,NNE,22,0.0,0.0,48,0.00,,,0.00,WUHU21623XXSP,2013-09-07 02:00:00,
2013-09-06 22:04:00,61.7,41.5,27.20,NNE,22,2.5,2.5,48,0.00,,,0.00,WUHU21623XXSP,2013-09-07 02:04:00,
2013-09-06 22:09:00,61.9,41.7,27.20,NNE,22,0.0,2.5,48,0.00,,,0.00,WUHU21623XXSP,2013-09-07 02:09:00,
2013-09-06 22:15:00,61.7,41.5,27.19,NNE,22,0.0,0.0,48,0.00,,,0.00,WUHU21623XXSP,2013-09-07 02:15:00,
2013-09-06 22:19:00,61.5,41.3,27.19,NNE,22,0.0,0.0,48,0.00,,,0.00,WUHU21623XXSP,2013-09-07 02:19:00,
2013-09-06 22:26:00,61.3,41.1,27.19,NNE,22,0.0,0.0,48,0.00,,,0.00,WUHU21623XXSP,2013-09-07 02:26:00,
2013-09-06 22:30:00,61.2,41.0,27.19,NNE,22,0.0,0.0,48,0.00,,,0.00,WUHU21623XXSP,2013-09-07 02:30:00,
2013-09-06 22:34:00,61.2,41.0,27.18,NNE,23,0.0,0.0,48,0.00,,,0.00,WUHU21623XXSP,2013-09-07 02:34:00,
2013-09-06 22:36:00,61.3,41.1,27.18,NNE,22,0.0,0.0,48,0.00,,,0.00,WUHU21623XXSP,2013-09-07 02:36:00,
2013-09-06 22:41:00,61.0,40.9,27.18,NNE,22,0.0,0.0,48,0.00,,,0.00,WUHU21623XXSP,2013-09-07 02:41:00,
2013-09-06 22:45:00,61.0,40.9,27.19,NNE,22,1.3,1.3,48,0.00,,,0.00,WUHU21623XXSP,2013-09-07 02:45:00,
2013-09-06 22:51:00,61.0,40.9,27.18,NNE,22,0.0,1.8,48,0.00,,,0.00,WUHU21623XXSP,2013-09-07 02:51:00,
2013-09-06 22:56:00,61.0,40.9,27.18,NNE,22,0.0,1.8,48,0.00,,,0.00,WUHU21623XXSP,2013-09-07 02:56:00,
2013-09-06 23:02:00,60.8,40.7,27.18,NNE,22,0.0,0.0,48,0.00,,,0.00,WUHU21623XXSP,2013-09-07 03:02:00,
2013-09-06 23:06:00,60.6,40.5,27.18,NNE,22,0.0,0.0,48,0.00,,,0.00,WUHU21623XXSP,2013-09-07 03:06:00,
2013-09-06 23:11:00,60.6,40.5,27.18,NNE,22,0.0,0.0,48,0.00,,,0.00,WUHU21623XXSP,2013-09-07 03:11:00,
2013-09-06 23:17:00,60.6,40.5,27.18,NNE,22,0.0,0.0,48,0.00,,,0.00,WUHU21623XXSP,2013-09-07 03:17:00,
2013-09-06 23:21:00,60.6,40.5,27.18,NNE,22,0.0,0.0,48,0.00,,,0.00,WUHU21623XXSP,2013-09-07 03:21:00,
2013-09-06 23:28:00,60.6,40.5,27.18,NNE,22,0.0,0.0,48,0.00,,,0.00,WUHU21623XXSP,2013-09-07 03:28:00,
2013-09-06 23:32:00,60.6,40.5,27.18,NNE,22,0.0,0.0,48,0.00,,,0.00,WUHU21623XXSP,2013-09-07 03:32:00,
2013-09-06 23:34:00,60.6,40.5,27.18,NNE,23,0.0,0.0,48,0.00,,,0.00,WUHU21623XXSP,2013-09-07 03:34:00,
2013-09-06 23:36:00,60.6,40.5,27.17,NNE,22,0.0,0.0,48,0.00,,,0.00,WUHU21623XXSP,2013-09-07 03:36:00,
2013-09-06 23:43:00,60.4,40.3,27.17,NNE,22,0.0,0.0,48,0.00,,,0.00,WUHU21623XXSP,2013-09-07 03:43:00,
2013-09-06 23:47:00,60.3,40.2,27.17,NNE,22,0.0,0.0,48,0.00,,,0.00,WUHU21623XXSP,2013-09-07 03:47:00,
2013-09-06 23:53:00,60.3,40.2,27.17,NNE,22,0.0,0.0,48,0.00,,,0.00,WUHU21623XXSP,2013-09-07 03:53:00,
2013-09-06 23:58:00,60.1,40.0,27.17,NNE,22,0.0,0.0,48,0.00,,,0.00,WUHU21623XXSP,2013-09-07 03:58:00,